Terminal Aerodrome Forecast
Issued by NWS

Home | Current Version | Previous Version | Text Only | Print | Product List | Glossary On
Versions: 1 2 3 4 5 6 7 8 9 10 11 12 13 14 15 16 17 18 19 20 21
000
FTUS42 KGSP 260535
TAFAND
TAF
KAND 260535Z 2606/2706 23008KT P6SM FEW060
     FM260700 24008KT 5SM BR FEW060
      TEMPO 2607/2611 25003KT 2SM BR SCT006 OVC015
     FM261400 26008G15KT P6SM SCT035 SCT200
     FM261700 27012G20KT P6SM SCT110
     FM262300 31007KT P6SM BKN060=

USA.gov is the U.S. government's official web portal to all federal, state and local government web resources and services.